Meteo Giornale » Osservazioni meteo Italia » Verona-Villafranca

ore: 06:50 - Osservazioni Meteo Verona-Villafranca
Lat. 45° 23' N Lon. 10° 52' E Alt. 67 metri s.l.m.

poco_nuvoloso Europe/Rome

16 °C

Poco Nuvoloso

Temp. 24 Ore

16 °C

28 °C

Nord

1.8 Km/h

Dew point 15 °C

Umidità 93 %

Visibilità  10 Km

Il sole sorge alle ore 06:01

Il sole tramonta alle ore 20:43

Data e Ora Cielo e Fenomeni T °C DP °C Um. % Pres. hPa Vis. km Vento km/h
Oggi h: 06:50 poco_nuvoloso Poco Nuvoloso 16 15 93 1015 10 N 1.8
Oggi h: 06:20 sereno Sereno 16 15 93 1015 10 N 3.7
Oggi h: 05:50 sereno Sereno 16 15 93 1015 10 N 3.7
Oggi h: 05:20 sereno Sereno 16 15 93 1015 10 N 1.8
Oggi h: 04:50 sereno Sereno 16 15 93 1015 10 N 1.8
Oggi h: 04:20 sereno Sereno 16 15 93 1015 10 N 3.7
Oggi h: 03:50 sereno Sereno 16 15 93 1015 10 N 3.7
Oggi h: 03:20 sereno Sereno 17 15 88 1015 10 N 3.7
Oggi h: 02:50 sereno Sereno 17 15 88 1015 10 N 5.5
Oggi h: 02:20 sereno Sereno 18 15 82 1015 10 N 5.5
Oggi h: 01:50 sereno Sereno 18 15 82 1015 10 N 5.5
Oggi h: 01:20 sereno Sereno 18 16 88 1015 10 N 1.8
Oggi h: 00:50 sereno Sereno 19 16 82 1015 10 N 5.5
Oggi h: 00:20 sereno Sereno 18 16 88 1015 10 N 0
Ieri h: 23:50 sereno Sereno 19 16 82 1015 10 N 3.7
Ieri h: 23:20 sereno Sereno 20 16 77 1014 10 E/SE 7.4
Ieri h: 22:50 sereno Sereno 20 16 77 1014 10 E/SE 7.4
Ieri h: 22:20 poco_nuvoloso Poco Nuvoloso 20 17 82 1014 10 E 9.3
Ieri h: 21:50 sereno Sereno 21 17 77 1014 10 N/NO 7.4
Ieri h: 21:20 poco_nuvoloso Poco Nuvoloso 21 17 77 1013 10 N 5.5
Ieri h: 20:50 sereno Sereno 22 17 73 1013 10 O 9.3
Ieri h: 20:20 poco_nuvoloso Poco Nuvoloso 22 17 73 1012 10 O/SO 7.4
Ieri h: 19:50 sereno Sereno 23 17 68 1012 10 SO 14.8
Ieri h: 19:20 sereno Sereno 24 16 60 1012 10 SO 18.5
Ieri h: 18:50 poco_nuvoloso Poco Nuvoloso 24 16 60 1012 10 SO 24
Ieri h: 18:20 poco_nuvoloso Poco Nuvoloso 27 14 44 1012 10 SO 13
Ieri h: 17:50 nuvoloso Nuvoloso 25 14 50 1012 10 S/SO 9.3
Ieri h: 17:20 nuvoloso Nuvoloso 26 13 44 1012 10 S 9.3
Ieri h: 16:50 nuvoloso Nuvoloso 26 15 50 1012 10 S 7.4
Ieri h: 16:20 nuvoloso Nuvoloso 28 13 39 1012 10 S/SE 7.4
Ieri h: 15:50 nuvoloso Nuvoloso 27 12 39 1012 10 N 5.5
Ieri h: 15:20 nuvoloso Nuvoloso 28 14 42 1012 10 N 3.7
Ieri h: 14:50 nuvoloso Nuvoloso 26 14 47 1012 10 E 7.4
Ieri h: 14:20 nuvoloso Nuvoloso 26 14 47 1012 10 E 11.1
Ieri h: 13:50 nuvoloso Nuvoloso 26 14 47 1013 10 E/SE 9.3
Ieri h: 13:20 coperto_pioggia Pioviggine Leggera 25 15 53 1013 10 SE 7.4
Ieri h: 12:50 nuvoloso Nuvoloso 25 15 53 1013 10 N 5.5
Ieri h: 12:20 nuvoloso Nuvoloso 24 15 57 1013 10 E 9.3
Ieri h: 11:50 sereno Sereno 24 16 60 1013 10 E 11.1
Ieri h: 11:20 sereno Sereno 24 15 57 1013 10 N 5.5
Ieri h: 10:50 sereno Sereno 23 14 56 1013 10 N 5.5
Ieri h: 10:20 poco_nuvoloso Poco Nuvoloso 22 16 68 1013 10 N 1.8
Ieri h: 09:50 sereno Sereno 21 16 73 1012 10 N 1.8
Ieri h: 09:20 sereno Sereno 20 16 77 1012 10 N 5.5
Ieri h: 08:50 nuvoloso Nuvoloso 19 16 82 1012 10 N 3.7
Ieri h: 08:20 poco_nuvoloso Poco Nuvoloso 19 15 77 1012 10 N 3.7
Ieri h: 07:50 poco_nuvoloso Poco Nuvoloso 19 15 77 1012 10 N 1.8